Time;durP1;ratioP1;P1;durP2;ratioP2;P2;SDS_P1;SDS_P2;PMS_P1;PMS_P2;Temp;Humidity;BMP_temperature;BMP_pressure;BME280_temperature;BME280_humidity;BME280_pressure;Samples;Min_cycle;Max_cycle;Signal;HPM_P1;HPM_P2
2021/10/25 00:00:18;;;;;;;22.63;13.32;;;;;;;10.95;75.25;101900.41;4943472;28;20043;-54
2021/10/25 00:02:43;;;;;;;22.75;13.32;;;;;;;10.95;75.20;101900.41;4941673;28;20723;-55
2021/10/25 00:05:08;;;;;;;20.90;13.23;;;;;;;11.01;75.02;101898.81;4933111;28;20130;-55
2021/10/25 00:07:34;;;;;;;22.63;12.85;;;;;;;11.08;74.81;101901.66;4941451;28;20506;-55
2021/10/25 00:09:59;;;;;;;21.08;13.18;;;;;;;11.08;74.42;101900.75;4940087;28;20450;-56
2021/10/25 00:12:25;;;;;;;18.85;12.20;;;;;;;11.08;74.08;101893.81;4943397;28;20074;-57
2021/10/25 00:14:50;;;;;;;20.92;13.15;;;;;;;11.13;74.04;101891.31;4931135;28;20248;-56
2021/10/25 00:17:15;;;;;;;20.52;12.32;;;;;;;11.16;73.74;101896.66;4944773;28;20053;-52
2021/10/25 00:19:41;;;;;;;18.10;11.90;;;;;;;11.21;73.55;101876.75;4937202;28;20047;-52
2021/10/25 00:22:06;;;;;;;18.77;12.32;;;;;;;11.28;73.92;101883.91;4943387;28;20034;-54
2021/10/25 00:24:31;;;;;;;18.60;12.25;;;;;;;11.32;73.48;101888.38;4941182;28;20472;-56
2021/10/25 00:26:57;;;;;;;20.52;12.18;;;;;;;11.34;73.34;101879.72;4933489;28;20054;-57
2021/10/25 00:29:22;;;;;;;22.35;12.77;;;;;;;11.34;73.42;101874.50;4938301;28;20082;-54
2021/10/25 00:31:48;;;;;;;20.38;12.50;;;;;;;11.27;73.38;101877.81;4944639;28;20492;-57
2021/10/25 00:34:14;;;;;;;21.98;11.77;;;;;;;11.39;73.13;101875.53;4944908;28;20538;-55
2021/10/25 00:36:39;;;;;;;19.60;12.02;;;;;;;11.43;73.07;101868.63;4942412;28;20035;-55
2021/10/25 00:39:05;;;;;;;22.05;12.20;;;;;;;11.44;73.29;101864.31;4933158;28;20377;-56
2021/10/25 00:41:30;;;;;;;19.05;12.43;;;;;;;11.40;72.88;101860.75;4943213;28;20046;-57
2021/10/25 00:43:56;;;;;;;19.45;12.73;;;;;;;11.38;72.89;101860.69;4941672;28;20129;-57
2021/10/25 00:46:22;;;;;;;21.70;12.65;;;;;;;11.47;72.92;101866.97;4945749;28;20066;-56
2021/10/25 00:48:47;;;;;;;21.50;13.00;;;;;;;11.42;72.63;101876.41;4938346;28;20104;-59
2021/10/25 00:51:14;;;;;;;18.90;11.98;;;;;;;11.49;71.86;101866.19;4939587;28;20050;-55
2021/10/25 00:53:41;;;;;;;18.65;11.30;;;;;;;11.59;72.02;101864.66;4941202;28;20051;-57
2021/10/25 00:56:07;;;;;;;18.58;11.45;;;;;;;11.47;71.85;101870.47;4954740;28;20043;-55
2021/10/25 00:58:33;;;;;;;19.00;12.57;;;;;;;11.59;71.72;101869.91;4942138;28;20038;-50
2021/10/25 01:00:59;;;;;;;20.05;12.60;;;;;;;11.61;71.48;101876.06;4931607;28;20042;-56
2021/10/25 01:03:24;;;;;;;19.25;12.05;;;;;;;11.60;71.73;101874.28;4940779;28;20041;-57
2021/10/25 01:05:52;;;;;;;20.63;12.30;;;;;;;11.62;71.34;101872.59;4942168;28;20060;-58
2021/10/25 01:08:17;;;;;;;17.33;11.75;;;;;;;11.57;71.92;101871.59;4941745;28;20157;-56
2021/10/25 01:10:43;;;;;;;21.27;12.35;;;;;;;11.64;71.81;101865.69;4952057;28;20471;-55
2021/10/25 01:13:09;;;;;;;18.15;12.02;;;;;;;11.64;71.66;101866.59;4937613;28;20050;-55
2021/10/25 01:15:35;;;;;;;17.88;11.65;;;;;;;11.64;71.68;101866.59;4934916;28;20098;-57
2021/10/25 01:18:00;;;;;;;20.75;12.07;;;;;;;11.76;71.11;101866.03;4936959;28;20051;-56
2021/10/25 01:20:28;;;;;;;19.45;12.27;;;;;;;11.72;71.00;101867.63;4949027;28;20731;-56
2021/10/25 01:22:53;;;;;;;19.30;11.73;;;;;;;11.74;70.82;101862.50;4932691;28;20038;-55
2021/10/25 01:25:19;;;;;;;19.77;11.77;;;;;;;11.74;70.88;101860.75;4944599;28;20282;-54
2021/10/25 01:27:45;;;;;;;19.30;11.98;;;;;;;11.75;70.62;101864.25;4947284;28;20081;-56
2021/10/25 01:30:10;;;;;;;21.00;12.30;;;;;;;11.75;70.69;101857.31;4942921;28;20139;-51
2021/10/25 01:32:36;;;;;;;21.85;12.48;;;;;;;11.71;70.69;101859.78;4945428;28;20208;-56
2021/10/25 01:35:02;;;;;;;18.98;11.93;;;;;;;11.76;70.80;101860.81;4939847;28;20386;-54
2021/10/25 01:37:28;;;;;;;19.00;12.23;;;;;;;11.74;70.65;101860.75;4946983;28;20030;-55
2021/10/25 01:39:53;;;;;;;19.52;12.48;;;;;;;11.62;71.69;101863.03;4943809;28;20468;-55
2021/10/25 01:42:20;;;;;;;20.05;12.93;;;;;;;11.72;71.48;101862.41;4942751;28;20482;-55
2021/10/25 01:44:45;;;;;;;20.55;12.43;;;;;;;11.73;71.08;101855.47;4942147;28;20086;-58
2021/10/25 01:47:10;;;;;;;19.42;12.70;;;;;;;11.67;71.68;101853.59;4944707;28;20550;-56
2021/10/25 01:49:36;;;;;;;21.27;12.55;;;;;;;11.75;71.24;101854.69;4946309;28;20145;-53
2021/10/25 01:52:02;;;;;;;18.90;11.90;;;;;;;11.81;70.89;101853.06;4948406;28;20058;-57
2021/10/25 01:54:27;;;;;;;20.50;12.45;;;;;;;11.82;71.01;101845.28;4944857;28;20165;-54
2021/10/25 01:56:52;;;;;;;20.75;12.43;;;;;;;11.76;71.34;101852.97;4938228;28;20051;-56
2021/10/25 01:59:18;;;;;;;21.90;12.65;;;;;;;11.76;71.29;101852.97;4950717;28;20046;-53
2021/10/25 02:01:45;;;;;;;19.08;12.07;;;;;;;11.80;71.65;101846.97;4941872;28;21440;-55
2021/10/25 02:04:10;;;;;;;20.83;11.68;;;;;;;11.83;71.38;101846.16;4944239;28;20581;-55
2021/10/25 02:06:36;;;;;;;19.02;12.07;;;;;;;11.83;70.78;101846.16;4942785;28;20047;-56
2021/10/25 02:09:01;;;;;;;19.73;11.98;;;;;;;11.77;71.50;101839.91;4941254;28;20324;-53
2021/10/25 02:11:27;;;;;;;20.23;11.85;;;;;;;11.82;71.11;101845.28;4942736;28;20430;-56
2021/10/25 02:13:52;;;;;;;19.25;12.27;;;;;;;11.90;70.91;101841.09;4945276;28;20370;-57
2021/10/25 02:16:17;;;;;;;19.33;11.85;;;;;;;11.90;70.68;101834.97;4950763;28;20059;-54
2021/10/25 02:18:43;;;;;;;18.73;11.35;;;;;;;11.90;71.12;101832.38;4941662;28;20055;-52
2021/10/25 02:21:10;;;;;;;18.00;12.02;;;;;;;11.90;70.81;101838.47;4941162;28;20416;-55
2021/10/25 02:23:36;;;;;;;20.00;11.82;;;;;;;11.87;71.18;101840.16;4947018;28;20521;-57
2021/10/25 02:26:02;;;;;;;18.58;11.65;;;;;;;11.89;71.33;101834.13;4945422;28;20051;-51
2021/10/25 02:28:27;;;;;;;20.15;11.45;;;;;;;11.91;71.01;101831.53;4943266;28;20042;-56
2021/10/25 02:30:53;;;;;;;18.73;12.10;;;;;;;11.93;70.35;101827.22;4936309;28;20039;-55
2021/10/25 02:33:20;;;;;;;20.38;11.32;;;;;;;11.99;70.52;101825.63;4946644;28;20046;-56
2021/10/25 02:35:46;;;;;;;17.58;11.13;;;;;;;12.03;70.37;101822.22;4945221;28;20181;-54
2021/10/25 02:38:11;;;;;;;19.90;10.95;;;;;;;12.07;70.31;101826.72;4947657;28;20462;-55
2021/10/25 02:40:38;;;;;;;17.33;11.65;;;;;;;12.00;71.14;101826.53;4944748;28;20121;-56
2021/10/25 02:43:05;;;;;;;19.30;11.10;;;;;;;12.07;70.72;101817.97;4937894;28;20517;-54
2021/10/25 02:45:30;;;;;;;19.10;11.32;;;;;;;12.02;70.98;101812.63;4938785;28;20528;-62
2021/10/25 02:47:56;;;;;;;15.70;10.77;;;;;;;12.10;70.89;101820.66;4941294;28;20038;-56
2021/10/25 02:50:22;;;;;;;20.45;11.40;;;;;;;12.02;71.23;101820.47;4943674;28;20844;-56
2021/10/25 02:52:47;;;;;;;20.63;11.30;;;;;;;12.03;71.87;101817.00;4940186;28;20053;-58
2021/10/25 02:55:13;;;;;;;18.15;11.68;;;;;;;12.10;71.97;101812.81;4946297;28;20089;-55
2021/10/25 02:57:39;;;;;;;18.77;11.35;;;;;;;12.11;71.75;101817.19;4959109;28;20053;-56
2021/10/25 03:00:06;;;;;;;19.75;11.70;;;;;;;12.09;71.89;101814.53;4943249;28;20122;-57
2021/10/25 03:02:32;;;;;;;21.05;11.65;;;;;;;12.06;72.26;101814.47;4943605;28;20126;-55
2021/10/25 03:04:58;;;;;;;19.02;12.13;;;;;;;11.89;73.67;101817.56;4940433;28;20039;-56
2021/10/25 03:07:23;;;;;;;18.48;12.50;;;;;;;11.91;73.99;101813.22;4943048;28;20047;-56
2021/10/25 03:09:48;;;;;;;19.98;12.15;;;;;;;11.93;73.92;101809.81;4952645;28;20186;-56
2021/10/25 03:12:14;;;;;;;20.73;11.63;;;;;;;11.97;74.04;101798.56;4943949;28;20050;-55
2021/10/25 03:14:39;;;;;;;21.83;12.85;;;;;;;11.87;74.65;101804.47;4936831;28;20100;-57
2021/10/25 03:17:05;;;;;;;22.52;13.68;;;;;;;11.88;74.69;101800.13;4936645;28;20046;-57
2021/10/25 03:19:30;;;;;;;21.27;13.25;;;;;;;11.78;75.17;101799.88;4938440;28;20170;-55
2021/10/25 03:21:56;;;;;;;24.42;13.93;;;;;;;11.85;75.01;101798.31;4944011;28;20051;-57
2021/10/25 03:24:22;;;;;;;24.20;13.40;;;;;;;11.86;75.03;101807.03;4944840;28;20893;-57
2021/10/25 03:26:47;;;;;;;23.08;13.27;;;;;;;11.89;75.09;101814.94;4937608;28;20074;-57
2021/10/25 03:29:13;;;;;;;21.25;13.25;;;;;;;11.90;75.13;101804.50;4940402;28;20471;-55
2021/10/25 03:31:38;;;;;;;22.48;12.63;;;;;;;11.90;75.25;101808.84;4942633;28;20050;-55
2021/10/25 03:34:04;;;;;;;22.60;13.30;;;;;;;11.95;75.04;101809.88;4935805;28;20519;-58
2021/10/25 03:36:31;;;;;;;24.02;13.20;;;;;;;11.83;75.79;101806.97;4942236;28;20062;-53
2021/10/25 03:38:57;;;;;;;21.40;13.10;;;;;;;11.89;75.74;101797.53;4938542;28;20047;-57
2021/10/25 03:41:38;;;;;;;23.42;13.13;;;;;;;11.89;75.91;101807.13;4944316;28;20065;-56
2021/10/25 03:44:14;;;;;;;23.20;13.02;;;;;;;11.94;75.67;101802.88;4942561;28;20054;-55
2021/10/25 03:46:44;;;;;;;23.55;13.80;;;;;;;11.93;75.89;101796.75;4941570;28;20047;-57
2021/10/25 03:49:16;;;;;;;23.67;13.63;;;;;;;11.89;76.40;101799.28;4941574;28;20054;-58
2021/10/25 03:51:43;;;;;;;22.50;12.70;;;;;;;12.00;75.87;101790.81;4944211;28;20078;-56
2021/10/25 03:59:40;;;;;;;23.38;14.02;;;;;;;11.99;76.26;101786.44;4942699;28;20035;-54
2021/10/25 04:26:16;;;;;;;28.90;16.13;;;;;;;12.04;77.02;101804.81;4936740;28;20053;-58
2021/10/25 04:28:43;;;;;;;26.75;15.48;;;;;;;12.04;77.20;101804.81;4939050;28;20046;-58
2021/10/25 04:31:09;;;;;;;32.33;15.90;;;;;;;12.08;76.70;101799.69;4939743;28;20165;-55
2021/10/25 04:33:34;;;;;;;28.88;15.70;;;;;;;12.13;76.98;101802.44;4942069;28;20058;-56
2021/10/25 04:36:00;;;;;;;30.83;16.45;;;;;;;12.06;77.46;101804.03;4939454;28;20046;-54
2021/10/25 04:38:25;;;;;;;28.88;15.52;;;;;;;12.02;77.29;101802.16;4944001;28;20051;-55
2021/10/25 04:40:50;;;;;;;28.15;16.33;;;;;;;12.11;77.09;101801.50;4936598;28;20121;-56
2021/10/25 04:43:17;;;;;;;33.47;17.00;;;;;;;12.15;77.21;101798.09;4938949;28;20078;-54
2021/10/25 04:45:43;;;;;;;30.60;16.92;;;;;;;12.08;77.30;101789.25;4924164;28;20073;-54
2021/10/25 04:48:09;;;;;;;30.35;17.25;;;;;;;12.15;77.51;101791.13;4941981;28;20534;-54
2021/10/25 04:50:34;;;;;;;35.47;17.75;;;;;;;12.20;77.11;101791.22;4947244;28;20310;-54
2021/10/25 04:53:00;;;;;;;32.53;17.73;;;;;;;12.19;77.27;101786.88;4939023;28;20050;-55
2021/10/25 04:55:26;;;;;;;35.25;18.83;;;;;;;12.23;77.16;101786.09;4942525;28;20039;-56
2021/10/25 04:57:51;;;;;;;35.53;18.77;;;;;;;12.17;77.77;101786.84;4936528;28;20117;-53
2021/10/25 05:00:16;;;;;;;37.70;19.65;;;;;;;12.24;77.51;101785.25;4935611;28;20039;-54
2021/10/25 05:02:42;;;;;;;38.33;20.02;;;;;;;12.28;77.66;101787.06;4938185;28;20061;-56
2021/10/25 05:05:08;;;;;;;41.22;20.38;;;;;;;12.27;77.47;101780.06;4937325;28;20038;-56
2021/10/25 05:07:34;;;;;;;37.47;19.38;;;;;;;12.33;77.54;101774.06;4942329;28;20050;-56
2021/10/25 05:10:03;;;;;;;37.97;19.60;;;;;;;12.38;77.24;101773.31;4938524;28;20050;-54
2021/10/25 05:12:30;;;;;;;40.35;21.40;;;;;;;12.32;77.70;101774.94;4939146;28;20043;-56
2021/10/25 05:14:55;;;;;;;43.22;20.85;;;;;;;12.32;77.84;101780.19;4933112;28;20436;-55
2021/10/25 05:17:21;;;;;;;39.83;20.88;;;;;;;12.36;77.58;101775.03;4939859;28;23407;-54
2021/10/25 05:19:46;;;;;;;48.67;22.48;;;;;;;12.38;77.58;101785.53;4938481;28;20047;-55
2021/10/25 05:22:12;;;;;;;44.55;22.83;;;;;;;12.38;77.66;101781.16;4937175;28;20566;-56
2021/10/25 05:24:39;;;;;;;41.70;22.05;;;;;;;12.33;77.61;101772.34;4940963;28;20050;-53
2021/10/25 05:27:06;;;;;;;44.17;21.15;;;;;;;12.37;77.63;101775.91;4930738;28;20255;-54
2021/10/25 05:29:32;;;;;;;45.53;21.92;;;;;;;12.37;77.79;101781.16;4942142;28;20162;-54
2021/10/25 05:31:58;;;;;;;49.00;22.77;;;;;;;12.36;77.52;101769.81;4940124;28;20051;-56
2021/10/25 05:34:24;;;;;;;46.92;22.90;;;;;;;12.35;77.53;101770.66;4942176;28;20219;-53
2021/10/25 05:36:49;;;;;;;42.72;21.35;;;;;;;12.44;77.67;101768.19;4930519;28;20948;-58
2021/10/25 05:39:14;;;;;;;44.85;22.33;;;;;;;12.45;77.58;101776.94;4944210;28;20144;-54
2021/10/25 05:41:40;;;;;;;47.20;22.13;;;;;;;12.44;77.49;101773.44;4938126;28;20235;-55
2021/10/25 05:44:06;;;;;;;45.50;22.92;;;;;;;12.43;77.67;101765.59;4939541;28;20687;-56
2021/10/25 05:46:31;;;;;;;46.63;22.40;;;;;;;12.41;77.74;101765.53;4938776;28;20043;-55
2021/10/25 05:48:59;;;;;;;44.15;21.75;;;;;;;12.34;78.12;101762.75;4935219;28;20458;-54
2021/10/25 05:51:24;;;;;;;46.42;22.08;;;;;;;12.48;77.61;101763.94;4937266;28;20049;-55
2021/10/25 05:53:50;;;;;;;40.55;20.45;;;;;;;12.50;77.55;101760.47;4940706;28;20042;-55
2021/10/25 05:56:16;;;;;;;43.25;22.17;;;;;;;12.49;77.33;101758.75;4934405;28;20046;-55
2021/10/25 05:58:44;;;;;;;43.45;21.17;;;;;;;12.50;77.42;101759.63;4938186;28;20128;-55
2021/10/25 06:01:16;;;;;;;37.75;20.02;;;;;;;12.49;77.45;101757.84;4936653;28;20045;-55
2021/10/25 06:03:43;;;;;;;40.08;20.30;;;;;;;12.40;77.67;101766.38;4938617;28;20043;-55
2021/10/25 06:06:09;;;;;;;38.67;19.60;;;;;;;12.46;77.47;101756.03;4942161;28;20039;-55
2021/10/25 06:08:35;;;;;;;38.80;19.23;;;;;;;12.40;77.52;101762.88;4942879;28;20046;-55
2021/10/25 06:11:00;;;;;;;36.28;19.27;;;;;;;12.40;77.61;101762.88;4930785;28;20047;-54
2021/10/25 06:13:33;;;;;;;32.35;18.40;;;;;;;12.43;77.65;101755.13;4939740;28;20057;-55
2021/10/25 06:16:09;;;;;;;35.45;19.38;;;;;;;12.41;77.37;101754.19;4940331;28;20126;-53
2021/10/25 06:18:35;;;;;;;37.88;19.38;;;;;;;12.34;77.62;101763.66;4939551;28;20121;-55
2021/10/25 06:21:00;;;;;;;33.35;18.48;;;;;;;12.32;77.66;101764.50;4930385;28;20462;-55
2021/10/25 06:23:25;;;;;;;35.20;18.48;;;;;;;12.37;77.62;101760.22;4944239;28;20470;-55
2021/10/25 06:25:51;;;;;;;36.67;18.77;;;;;;;12.28;78.27;101760.03;4944559;28;20047;-53
2021/10/25 06:28:18;;;;;;;32.97;17.92;;;;;;;12.36;77.61;101741.03;4938386;28;20039;-55
2021/10/25 06:30:45;;;;;;;28.70;17.45;;;;;;;12.41;77.21;101759.44;4936242;28;20343;-55
2021/10/25 06:33:15;;;;;;;30.63;16.63;;;;;;;12.40;77.42;101750.69;4918825;28;20074;-57
2021/10/25 06:35:42;;;;;;;29.42;16.25;;;;;;;12.45;77.45;101763.84;4931933;28;20047;-57
2021/10/25 06:38:12;;;;;;;28.17;16.67;;;;;;;12.37;77.49;101761.13;4943487;28;20510;-54
2021/10/25 06:40:38;;;;;;;26.23;15.63;;;;;;;12.36;77.80;101761.97;4936809;28;20046;-56
2021/10/25 06:43:04;;;;;;;26.73;15.70;;;;;;;12.44;77.55;101759.50;4930659;28;20620;-54
2021/10/25 06:45:29;;;;;;;27.48;15.50;;;;;;;12.46;77.53;101756.03;4942256;28;20055;-54
2021/10/25 06:47:55;;;;;;;26.90;15.93;;;;;;;12.51;77.36;101763.97;4941790;28;20055;-53
2021/10/25 06:50:25;;;;;;;27.02;15.68;;;;;;;12.53;77.26;101767.50;4938773;28;20125;-54
2021/10/25 06:52:52;;;;;;;26.52;15.07;;;;;;;12.43;77.52;101768.19;4935738;28;20061;-55
2021/10/25 06:55:18;;;;;;;27.58;15.43;;;;;;;12.48;77.47;101763.94;4942605;28;20050;-55
2021/10/25 06:57:44;;;;;;;26.85;15.77;;;;;;;12.43;77.54;101758.63;4943717;28;20078;-56
2021/10/25 07:00:10;;;;;;;25.70;15.52;;;;;;;12.51;77.56;101763.97;4937799;28;20062;-57
2021/10/25 07:02:35;;;;;;;27.38;15.15;;;;;;;12.57;77.53;101759.75;4940851;28;20558;-56
2021/10/25 07:05:02;;;;;;;26.45;15.10;;;;;;;12.52;77.55;101766.63;4948965;28;20039;-57
2021/10/25 07:07:29;;;;;;;28.85;15.75;;;;;;;12.54;77.33;101771.91;4943702;28;20766;-56
2021/10/25 07:09:56;;;;;;;26.17;15.82;;;;;;;12.60;77.35;101772.03;4940893;28;20205;-54
2021/10/25 07:12:26;;;;;;;27.35;15.25;;;;;;;12.61;77.29;101773.78;4945877;28;20319;-57
2021/10/25 07:14:54;;;;;;;26.90;15.57;;;;;;;12.56;77.52;101773.66;4937647;28;20050;-56
2021/10/25 07:20:23;;;;;;;25.13;14.75;;;;;;;12.59;77.55;101773.75;4940146;28;20050;-53
2021/10/25 07:59:27;;;;;;;;;;;;;;;12.61;77.69;101784.25;4941631;28;20117;-52
2021/10/25 08:01:27;;;;;;;23.98;14.20;;;;;;;12.84;77.58;101798.66;4917114;28;20102;-56
2021/10/25 08:06:42;;;;;;;22.97;13.70;;;;;;;12.97;77.37;101808.50;4920370;28;20077;-55
2021/10/25 08:09:19;;;;;;;23.23;14.18;;;;;;;12.99;77.71;101809.38;4913951;28;20165;-56
2021/10/25 08:11:58;;;;;;;21.10;13.57;;;;;;;13.19;77.16;101812.41;4922255;28;20048;-52
2021/10/25 08:14:30;;;;;;;19.38;12.88;;;;;;;13.23;77.08;101805.50;4922191;28;20578;-58
2021/10/25 08:16:56;;;;;;;20.90;13.13;;;;;;;13.24;76.71;101802.88;4913058;28;20050;-57
2021/10/25 08:19:24;;;;;;;19.65;12.80;;;;;;;13.29;76.90;101803.88;4918672;28;20506;-56
2021/10/25 08:22:09;;;;;;;20.88;13.18;;;;;;;13.34;76.77;101807.44;4925312;28;20603;-55
2021/10/25 08:24:38;;;;;;;21.50;13.63;;;;;;;13.42;76.52;101801.47;4924330;28;20047;-54
2021/10/25 08:27:04;;;;;;;19.83;12.60;;;;;;;13.50;76.34;101805.94;4913546;28;20387;-55
2021/10/25 08:29:31;;;;;;;19.85;12.98;;;;;;;13.37;76.40;101804.84;4923326;28;20487;-56
2021/10/25 08:32:13;;;;;;;20.30;14.00;;;;;;;13.43;76.15;101805.81;4926386;28;20497;-57
2021/10/25 08:42:12;;;;;;;19.42;14.02;;;;;;;13.53;75.67;101800.78;4914653;28;20121;-54
2021/10/25 08:44:38;;;;;;;20.38;14.30;;;;;;;13.51;75.50;101798.97;4925643;28;20530;-56
2021/10/25 08:47:08;;;;;;;23.13;14.65;;;;;;;13.57;75.38;101801.69;4913131;28;20065;-54
2021/10/25 08:49:34;;;;;;;23.05;15.52;;;;;;;13.53;75.70;101802.50;4923719;28;20035;-57
2021/10/25 08:52:00;;;;;;;25.38;16.27;;;;;;;13.61;75.46;101804.38;4924224;28;20483;-53
2021/10/25 08:54:27;;;;;;;25.48;15.88;;;;;;;13.63;75.37;101807.03;4924269;28;20127;-58
2021/10/25 08:56:52;;;;;;;25.90;16.33;;;;;;;13.70;75.53;101803.66;4916733;28;20096;-53
2021/10/25 08:59:20;;;;;;;26.38;16.50;;;;;;;13.69;75.52;101809.75;4936934;28;20498;-60
2021/10/25 09:01:45;;;;;;;26.08;16.73;;;;;;;13.73;75.35;101808.91;4915474;28;20050;-53
2021/10/25 09:04:12;;;;;;;29.83;17.35;;;;;;;13.75;75.40;101809.84;4919013;28;20043;-57
2021/10/25 09:06:55;;;;;;;30.27;18.02;;;;;;;13.78;75.49;101807.28;4920450;28;20043;-53
2021/10/25 09:09:21;;;;;;;33.92;18.92;;;;;;;13.92;75.26;101810.97;4928665;28;20534;-55
2021/10/25 09:11:59;;;;;;;33.97;19.50;;;;;;;14.03;75.06;101808.47;4920266;28;20043;-55
2021/10/25 09:14:25;;;;;;;31.38;18.67;;;;;;;13.88;75.30;101803.03;4919018;28;20104;-55
2021/10/25 09:17:04;;;;;;;30.73;19.42;;;;;;;14.00;75.02;101801.47;4912456;28;20064;-54
2021/10/25 09:19:35;;;;;;;35.05;20.45;;;;;;;14.04;74.75;101807.63;4920337;28;20035;-56
2021/10/25 09:22:17;;;;;;;34.55;20.30;;;;;;;14.04;74.69;101803.28;4928087;28;20051;-53
2021/10/25 09:24:52;;;;;;;35.75;19.88;;;;;;;14.09;74.83;101803.31;4916633;28;20113;-56
2021/10/25 09:27:27;;;;;;;39.45;22.00;;;;;;;14.12;74.54;101799.03;4923761;28;20114;-56
2021/10/25 09:29:56;;;;;;;37.55;21.67;;;;;;;14.11;74.75;101791.13;4921361;28;20051;-56
2021/10/25 09:32:30;;;;;;;37.95;22.20;;;;;;;14.20;74.60;101799.13;4925778;28;20054;-55
2021/10/25 09:34:58;;;;;;;41.17;22.02;;;;;;;14.21;74.59;101800.88;4921753;28;20078;-57
2021/10/25 09:37:29;;;;;;;37.35;22.45;;;;;;;14.24;74.46;101795.69;4926000;28;20264;-52
2021/10/25 09:40:17;;;;;;;38.95;22.80;;;;;;;14.26;74.17;101798.34;4942883;28;20150;-56
2021/10/25 09:50:59;;;;;;;36.05;21.92;;;;;;;14.32;74.19;101795.78;4919370;28;20166;-55
2021/10/25 09:53:34;;;;;;;36.00;21.15;;;;;;;14.34;74.28;101799.28;4928425;28;20043;-51
2021/10/25 09:55:59;;;;;;;35.50;21.50;;;;;;;14.37;74.03;101797.63;4924516;28;20142;-51
2021/10/25 09:58:27;;;;;;;40.83;22.85;;;;;;;14.37;74.09;101795.00;4926538;28;20039;-55
2021/10/25 10:00:53;;;;;;;36.33;21.77;;;;;;;14.43;74.16;101795.09;4913380;28;20690;-54
2021/10/25 10:03:19;;;;;;;35.05;20.60;;;;;;;14.44;74.00;101799.47;4925235;28;20078;-54
2021/10/25 10:05:44;;;;;;;35.28;21.70;;;;;;;14.34;74.36;101786.16;4924672;28;20043;-55
2021/10/25 10:08:11;;;;;;;35.20;21.30;;;;;;;14.35;74.27;101790.56;4924135;28;20254;-55
2021/10/25 10:10:38;;;;;;;33.80;20.02;;;;;;;14.32;74.17;101791.41;4926052;28;20039;-56
2021/10/25 10:13:04;;;;;;;32.25;19.65;;;;;;;14.34;73.98;101788.78;4912564;28;20145;-55
2021/10/25 10:15:34;;;;;;;35.05;20.52;;;;;;;14.32;73.94;101796.66;4922375;28;20051;-55
2021/10/25 10:18:10;;;;;;;32.92;19.75;;;;;;;14.32;74.24;101793.16;4922244;28;20550;-55
2021/10/25 10:20:39;;;;;;;36.00;20.60;;;;;;;14.40;74.21;101791.53;4940207;28;20039;-55
2021/10/25 10:23:08;;;;;;;26.58;18.17;;;;;;;14.42;74.18;101800.31;4918978;28;20046;-55
2021/10/25 10:25:36;;;;;;;30.77;18.42;;;;;;;14.49;73.65;101799.53;4919916;28;20051;-55
2021/10/25 10:28:08;;;;;;;28.63;18.30;;;;;;;14.49;73.78;101796.91;4925545;28;20186;-55
2021/10/25 10:30:58;;;;;;;31.67;17.80;;;;;;;14.53;73.85;101796.06;4925497;28;20467;-56
2021/10/25 10:33:59;;;;;;;30.70;17.95;;;;;;;14.60;73.86;101793.53;4919710;28;20051;-55
2021/10/25 10:36:27;;;;;;;29.52;18.58;;;;;;;14.56;73.91;101777.75;4925911;28;20044;-54
2021/10/25 10:39:19;;;;;;;32.55;18.85;;;;;;;14.68;73.46;101783.13;4919230;28;20042;-55
2021/10/25 10:41:57;;;;;;;32.03;18.88;;;;;;;14.71;73.72;101777.03;4918869;28;20101;-53
2021/10/25 10:44:28;;;;;;;29.52;18.67;;;;;;;14.82;73.42;101781.53;4920797;28;20043;-55
2021/10/25 10:46:58;;;;;;;29.60;19.33;;;;;;;14.75;73.17;101784.09;4916586;28;20039;-56
2021/10/25 10:49:32;;;;;;;33.40;19.55;;;;;;;14.78;73.37;101784.97;4918502;28;20432;-56
2021/10/25 10:52:17;;;;;;;33.85;19.20;;;;;;;14.94;73.13;101780.78;4921559;28;20054;-56
2021/10/25 10:55:00;;;;;;;32.05;18.85;;;;;;;14.82;73.34;101784.16;4917870;28;20066;-56
2021/10/25 10:58:08;;;;;;;33.83;19.33;;;;;;;15.02;72.82;101782.59;4923609;28;20043;-55
2021/10/25 11:00:58;;;;;;;29.48;18.35;;;;;;;15.07;72.58;101780.00;4923818;28;20036;-55
2021/10/25 11:03:26;;;;;;;32.10;19.88;;;;;;;15.09;73.15;101769.53;4921765;28;20078;-55
2021/10/25 11:05:58;;;;;;;35.15;19.92;;;;;;;15.05;72.84;101778.25;4925195;28;20064;-54
2021/10/25 11:08:29;;;;;;;33.22;19.80;;;;;;;15.09;73.13;101777.41;4923610;28;20050;-56
2021/10/25 11:11:00;;;;;;;38.45;21.85;;;;;;;15.16;72.80;101782.75;4917681;28;20380;-56
2021/10/25 11:13:29;;;;;;;34.85;20.58;;;;;;;15.17;72.65;101784.50;4922764;28;20047;-54
2021/10/25 11:16:11;;;;;;;33.83;20.27;;;;;;;15.17;72.54;101792.38;4921647;28;20031;-53
2021/10/25 11:18:45;;;;;;;37.50;20.95;;;;;;;14.97;72.93;101786.94;4921673;28;20043;-56
2021/10/25 11:21:20;;;;;;;32.28;20.48;;;;;;;15.03;72.54;101784.38;4917090;28;20269;-58
2021/10/25 11:23:51;;;;;;;36.28;20.48;;;;;;;15.01;72.62;101793.97;4924024;28;20130;-53
2021/10/25 11:26:46;;;;;;;33.42;20.13;;;;;;;14.99;72.52;101787.84;4930303;28;20070;-55
2021/10/25 11:29:12;;;;;;;34.20;19.00;;;;;;;14.98;72.88;101787.81;4937970;28;20070;-57
2021/10/25 11:31:49;;;;;;;33.13;19.83;;;;;;;15.00;72.43;101797.47;4944820;28;20043;-59
2021/10/25 11:34:25;;;;;;;33.20;19.23;;;;;;;14.96;72.39;101797.41;4944052;28;20035;-56
2021/10/25 11:37:12;;;;;;;31.83;18.38;;;;;;;15.07;72.22;101784.38;4935711;28;20119;-56
2021/10/25 11:39:45;;;;;;;30.67;18.27;;;;;;;15.05;72.21;101786.13;4925998;28;20051;-56
2021/10/25 11:42:19;;;;;;;31.92;18.67;;;;;;;14.96;72.58;101785.19;4921732;28;20047;-56
2021/10/25 11:44:56;;;;;;;34.70;19.25;;;;;;;15.05;72.71;101781.78;4914433;28;21479;-54
2021/10/25 11:47:24;;;;;;;34.30;19.42;;;;;;;15.13;72.15;101777.44;4923493;28;20181;-54
2021/10/25 11:49:56;;;;;;;32.47;18.90;;;;;;;15.00;72.89;101768.56;4921822;28;20055;-56
2021/10/25 11:52:22;;;;;;;32.55;19.42;;;;;;;15.13;72.40;101766.06;4919356;28;20134;-54
2021/10/25 11:54:52;;;;;;;36.88;19.73;;;;;;;15.01;73.10;101769.44;4921728;28;20048;-59
2021/10/25 11:57:19;;;;;;;36.33;20.35;;;;;;;14.97;73.01;101771.19;4920585;28;20456;-57
2021/10/25 11:59:58;;;;;;;38.33;20.92;;;;;;;15.08;72.77;101768.66;4921857;28;20043;-55
2021/10/25 12:02:25;;;;;;;35.33;20.98;;;;;;;15.10;72.56;101766.03;4932262;28;20352;-54
2021/10/25 12:04:51;;;;;;;37.20;20.75;;;;;;;15.16;72.51;101768.72;4914818;28;20063;-57
2021/10/25 12:07:16;;;;;;;38.08;21.73;;;;;;;15.12;71.93;101764.31;4924654;28;20071;-56
2021/10/25 12:09:42;;;;;;;40.13;21.95;;;;;;;15.00;72.47;101757.22;4921745;28;20801;-54
2021/10/25 12:12:16;;;;;;;41.42;22.00;;;;;;;14.95;72.84;101758.91;4921222;28;20197;-58
2021/10/25 12:14:44;;;;;;;38.55;22.55;;;;;;;14.76;73.30;101764.84;4922771;28;20788;-54
2021/10/25 12:17:14;;;;;;;38.55;22.58;;;;;;;14.90;73.01;101761.47;4918024;28;20074;-57
2021/10/25 12:19:43;;;;;;;39.63;22.10;;;;;;;14.92;73.06;101757.13;4922931;28;20043;-56
2021/10/25 12:22:22;;;;;;;40.47;22.38;;;;;;;14.91;73.13;101760.63;4918194;28;20051;-57
2021/10/25 12:24:52;;;;;;;38.75;22.20;;;;;;;15.01;72.89;101758.94;4920696;28;20059;-56
2021/10/25 12:27:21;;;;;;;38.03;22.15;;;;;;;15.00;73.04;101757.22;4921443;28;20527;-56
2021/10/25 12:29:58;;;;;;;43.97;22.55;;;;;;;15.02;72.87;101758.97;4920761;28;20075;-53
2021/10/25 12:32:23;;;;;;;41.78;22.85;;;;;;;15.07;72.59;101758.13;4921957;28;20554;-55
2021/10/25 12:34:51;;;;;;;37.53;22.05;;;;;;;15.05;72.76;101754.63;4916454;28;20161;-60
2021/10/25 12:37:28;;;;;;;41.92;23.38;;;;;;;15.02;72.89;101755.47;4920153;28;20046;-56
2021/10/25 12:39:58;;;;;;;39.17;23.13;;;;;;;15.03;72.65;101758.09;4921556;28;20416;-55
2021/10/25 12:42:26;;;;;;;42.10;22.83;;;;;;;15.01;72.81;101753.69;4918204;28;20068;-58